Cardston, Canada
Current Conditions -  °F | °C
As of 11:00 PM on Tuesday 27 Jan 2015 (Local Time) from CYQL Reporting Station
Clear Clear  
Wind Chill: 34°   Ceiling: Unl
Heat Index: 43°   Visibility: 9mi
Dew Point: 25°   Wind: 21mph
Humidity: 49%   Direction: 230°SW
Pressure: 29.81"   Gusts: NA
Location:  49.2°N, 113.3°W
Report Text: CYQL 280600Z AUTO 23018KT 9SM CLR 06/M04 A2981 RMK SLP108
Loading
Personal Weather Stations






























Interactive Weather Map New forecast layout! Learn more

10-Day Weather Forecast

Advertisements
Track Severe Weather on mobile